Time;durP1;ratioP1;P1;durP2;ratioP2;P2;SDS_P1;SDS_P2;PMS_P1;PMS_P2;Temp;Humidity;BMP_temperature;BMP_pressure;BME280_temperature;BME280_humidity;BME280_pressure;Samples;Min_cycle;Max_cycle;Signal;HPM_P1;HPM_P2
2022/05/21 00:02:22;;;;;;;3.55;2.28;;;;;;;16.22;nan;100963.13;5039486;28;20044;-81
2022/05/21 00:04:47;;;;;;;3.28;2.40;;;;;;;16.18;nan;100975.16;5044485;28;20037;-79
2022/05/21 00:07:12;;;;;;;3.45;2.20;;;;;;;16.15;nan;100975.53;5033215;28;20073;-80
2022/05/21 00:09:37;;;;;;;3.75;2.13;;;;;;;16.10;nan;100976.06;5043820;28;20380;-79
2022/05/21 00:12:05;;;;;;;2.70;2.10;;;;;;;16.06;nan;100984.59;5042456;28;20069;-80
2022/05/21 00:14:31;;;;;;;2.35;1.85;;;;;;;16.04;nan;100994.59;5021081;28;20509;-80
2022/05/21 00:16:56;;;;;;;3.03;2.00;;;;;;;15.97;nan;100998.97;5035755;28;20041;-81
2022/05/21 00:19:21;;;;;;;3.28;2.00;;;;;;;15.90;nan;100999.69;5038669;28;20060;-80
2022/05/21 00:21:47;;;;;;;2.72;2.00;;;;;;;15.90;nan;101001.53;5043104;28;20135;-80
2022/05/21 00:24:12;;;;;;;5.57;2.67;;;;;;;15.80;nan;101001.75;5047158;28;20474;-80
2022/05/21 00:26:38;;;;;;;3.67;2.30;;;;;;;15.83;nan;101006.75;5048196;28;20029;-80
2022/05/21 00:29:03;;;;;;;2.60;1.85;;;;;;;15.77;nan;101015.41;5037037;28;20068;-80
2022/05/21 00:31:29;;;;;;;4.00;1.80;;;;;;;15.70;nan;101017.94;5043752;28;20521;-80
2022/05/21 00:33:54;;;;;;;2.28;1.73;;;;;;;15.63;nan;101013.44;5043338;28;20037;-79
2022/05/21 00:36:19;;;;;;;3.10;1.90;;;;;;;15.60;nan;101016.47;5047679;28;20035;-80
2022/05/21 00:38:45;;;;;;;3.45;1.80;;;;;;;15.54;nan;101020.66;5040659;28;20041;-80
2022/05/21 00:41:14;;;;;;;2.55;2.10;;;;;;;15.47;nan;101023.19;5045240;28;20302;-79
2022/05/21 00:43:48;;;;;;;3.42;1.83;;;;;;;15.43;nan;101027.19;5035553;28;20380;-80
2022/05/21 00:46:20;;;;;;;4.78;1.70;;;;;;;15.41;nan;101023.03;5036584;28;20052;-80
2022/05/21 00:48:53;;;;;;;2.03;1.60;;;;;;;15.37;nan;101025.19;5050891;28;20029;-80
2022/05/21 00:51:24;;;;;;;2.50;1.50;;;;;;;15.35;nan;101027.22;5039309;28;20291;-80
2022/05/21 00:53:53;;;;;;;2.55;1.40;;;;;;;15.29;nan;101043.88;5041790;28;20478;-80
2022/05/21 00:56:20;;;;;;;2.83;1.50;;;;;;;15.22;nan;101048.22;5037054;28;20029;-80
2022/05/21 01:01:35;;;;;;;2.20;1.40;;;;;;;15.07;nan;101050.75;5033415;28;20037;-80
2022/05/21 01:04:00;;;;;;;3.25;1.70;;;;;;;14.94;nan;101056.56;5043855;28;20042;-79
2022/05/21 01:06:26;;;;;;;2.05;1.30;;;;;;;14.95;nan;101052.09;5051035;28;20040;-79
2022/05/21 01:08:51;;;;;;;2.65;1.52;;;;;;;14.88;nan;101051.94;5037986;28;20365;-79
2022/05/21 01:11:18;;;;;;;2.20;1.40;;;;;;;14.87;nan;101058.22;5046138;28;20126;-80
2022/05/21 01:13:46;;;;;;;3.10;1.60;;;;;;;14.79;nan;101061.72;5042832;28;20136;-79
2022/05/21 01:16:13;;;;;;;2.13;1.40;;;;;;;14.72;nan;101062.56;5043081;28;20192;-80
2022/05/21 01:18:39;;;;;;;2.42;1.60;;;;;;;14.65;nan;101068.53;5038532;28;20124;-79
2022/05/21 01:21:05;;;;;;;2.65;1.40;;;;;;;14.58;nan;101072.03;5038989;28;20056;-80
2022/05/21 01:23:31;;;;;;;2.67;1.88;;;;;;;14.58;nan;101067.53;5040142;28;20522;-80
2022/05/21 01:25:59;;;;;;;2.92;1.70;;;;;;;14.50;nan;101072.00;5036580;28;20193;-80
2022/05/21 01:28:26;;;;;;;2.15;1.40;;;;;;;14.50;nan;101077.31;5045304;28;20437;-80
2022/05/21 01:30:55;;;;;;;2.00;1.52;;;;;;;14.48;nan;101080.13;5040671;28;20033;-79
2022/05/21 01:33:24;;;;;;;2.92;1.70;;;;;;;14.41;nan;101082.63;5039674;28;20048;-80
2022/05/21 01:35:49;;;;;;;2.15;1.70;;;;;;;14.36;nan;101076.97;5044516;28;20075;-80
2022/05/21 01:38:17;;;;;;;2.60;1.80;;;;;;;14.28;nan;101078.75;5040766;28;20441;-80
2022/05/21 01:40:43;;;;;;;2.28;1.75;;;;;;;14.26;nan;101078.94;5042790;28;20037;-79
2022/05/21 01:45:53;;;;;;;2.63;1.52;;;;;;;14.13;nan;101079.38;5043204;28;20044;-80
2022/05/21 01:48:21;;;;;;;2.55;1.63;;;;;;;14.07;nan;101080.03;5036056;28;20451;-80
2022/05/21 01:50:47;;;;;;;2.08;1.30;;;;;;;14.04;nan;101083.03;5038258;28;20479;-80
2022/05/21 01:53:12;;;;;;;2.33;1.60;;;;;;;13.99;nan;101085.31;5024801;28;20096;-80
2022/05/21 01:55:38;;;;;;;2.03;1.20;;;;;;;13.97;nan;101082.00;5018016;28;20510;-80
2022/05/21 01:58:04;;;;;;;2.00;1.40;;;;;;;13.93;nan;101081.47;5034888;28;20459;-80
2022/05/21 02:00:29;;;;;;;2.55;1.50;;;;;;;13.89;nan;101090.75;5041618;28;20244;-80
2022/05/21 02:02:55;;;;;;;2.08;1.70;;;;;;;13.87;nan;101087.44;5039355;28;20491;-80
2022/05/21 02:05:20;;;;;;;2.70;1.95;;;;;;;13.80;nan;101092.56;5042597;28;20043;-79
2022/05/21 02:07:45;;;;;;;2.35;1.50;;;;;;;13.74;nan;101093.19;5035711;28;20486;-79
2022/05/21 02:10:11;;;;;;;2.75;1.80;;;;;;;13.72;nan;101092.50;5036766;28;20032;-79
2022/05/21 02:12:36;;;;;;;3.10;2.05;;;;;;;13.67;nan;101097.47;5046133;28;20059;-81
2022/05/21 02:15:02;;;;;;;2.40;1.80;;;;;;;13.65;nan;101102.09;5025131;28;20117;-79
2022/05/21 02:17:28;;;;;;;3.30;1.98;;;;;;;13.65;nan;101103.94;5044624;28;20483;-81
2022/05/21 02:19:53;;;;;;;3.22;2.00;;;;;;;13.63;nan;101100.59;5040987;28;20108;-82
2022/05/21 02:22:18;;;;;;;3.08;2.10;;;;;;;13.64;nan;101096.97;5043365;28;20025;-79
2022/05/21 02:24:44;;;;;;;2.53;1.85;;;;;;;13.62;nan;101093.63;5042283;28;20483;-81
2022/05/21 02:27:11;;;;;;;2.10;1.65;;;;;;;13.59;nan;101097.44;5035533;28;20376;-82
2022/05/21 02:29:37;;;;;;;3.60;2.00;;;;;;;13.53;nan;101092.75;5032298;28;20029;-81
2022/05/21 02:32:02;;;;;;;2.58;2.03;;;;;;;13.53;nan;101092.75;5042470;28;20033;-81
2022/05/21 02:34:28;;;;;;;3.78;2.00;;;;;;;13.49;nan;101094.03;5041719;28;20100;-82
2022/05/21 02:39:37;;;;;;;3.40;2.40;;;;;;;13.35;nan;101098.94;5032484;28;20099;-81
2022/05/21 02:42:03;;;;;;;4.07;2.30;;;;;;;13.34;nan;101105.22;5031534;28;20033;-82
2022/05/21 02:44:29;;;;;;;2.50;2.00;;;;;;;13.27;nan;101108.66;5020274;28;20037;-82
2022/05/21 02:46:55;;;;;;;2.40;1.80;;;;;;;13.20;nan;101105.75;5028474;28;20454;-81
2022/05/21 02:49:21;;;;;;;2.97;1.75;;;;;;;13.13;nan;101112.69;5040722;28;20037;-81
2022/05/21 02:51:48;;;;;;;3.88;1.98;;;;;;;13.05;nan;101118.75;5030449;28;20048;-79
2022/05/21 02:54:14;;;;;;;2.58;1.80;;;;;;;12.98;nan;101111.56;5029023;28;20052;-80
2022/05/21 02:56:48;;;;;;;2.35;1.70;;;;;;;12.93;nan;101120.00;5034282;28;20041;-81
2022/05/21 02:59:14;;;;;;;3.35;2.42;;;;;;;12.88;nan;101123.09;5034370;28;20095;-81
2022/05/21 03:01:39;;;;;;;3.13;2.22;;;;;;;12.86;nan;101117.09;5038527;28;20045;-81
2022/05/21 03:04:04;;;;;;;2.55;1.90;;;;;;;12.85;nan;101126.06;5037364;28;20318;-81
2022/05/21 03:06:29;;;;;;;2.20;1.80;;;;;;;12.84;nan;101116.44;5039328;28;20056;-81
2022/05/21 03:11:39;;;;;;;2.75;2.20;;;;;;;12.74;nan;101118.31;5031672;28;20126;-81
2022/05/21 03:14:04;;;;;;;2.75;2.20;;;;;;;12.69;nan;101118.78;5032602;28;20180;-81
2022/05/21 03:16:29;;;;;;;3.30;2.03;;;;;;;12.66;nan;101121.75;5034043;28;20081;-80
2022/05/21 03:18:54;;;;;;;2.75;2.05;;;;;;;12.63;nan;101130.00;5034339;28;20237;-81
2022/05/21 03:21:20;;;;;;;2.00;1.63;;;;;;;12.61;nan;101124.03;5041784;28;20108;-81
2022/05/21 03:23:45;;;;;;;2.20;1.70;;;;;;;12.61;nan;101136.44;5035918;28;20775;-81
2022/05/21 03:26:11;;;;;;;2.90;1.83;;;;;;;12.58;nan;101136.72;5036469;28;20037;-80
2022/05/21 03:28:36;;;;;;;2.20;1.90;;;;;;;12.59;nan;101141.91;5040438;28;20061;-80
2022/05/21 03:31:02;;;;;;;2.85;2.00;;;;;;;12.59;nan;101138.41;5040210;28;20044;-80
2022/05/21 03:33:27;;;;;;;2.63;1.80;;;;;;;12.60;nan;101140.91;5020844;28;20034;-81
2022/05/21 03:35:52;;;;;;;2.35;1.55;;;;;;;12.63;nan;101145.06;5037596;28;20546;-81
2022/05/21 03:38:19;;;;;;;2.17;1.58;;;;;;;12.62;nan;101146.91;5037215;28;20066;-80
2022/05/21 03:40:45;;;;;;;3.50;1.83;;;;;;;12.64;nan;101138.81;5019568;28;20387;-80
2022/05/21 03:43:10;;;;;;;2.10;1.50;;;;;;;12.64;nan;101133.50;5039093;28;20100;-81
2022/05/21 03:45:36;;;;;;;2.00;1.48;;;;;;;12.64;nan;101136.97;5040647;28;20029;-79
2022/05/21 03:48:05;;;;;;;2.13;1.52;;;;;;;12.66;nan;101150.09;5035812;28;20526;-79
2022/05/21 03:50:32;;;;;;;1.40;1.17;;;;;;;12.66;nan;101142.13;5022919;28;20033;-79
2022/05/21 03:52:58;;;;;;;2.30;1.50;;;;;;;12.65;nan;101143.94;5038987;28;20073;-79
2022/05/21 03:55:23;;;;;;;1.90;1.40;;;;;;;12.64;nan;101142.28;5025178;28;20185;-79
2022/05/21 03:57:49;;;;;;;2.35;1.40;;;;;;;12.64;nan;101141.44;5043309;28;20191;-79
2022/05/21 04:00:16;;;;;;;1.92;1.42;;;;;;;12.63;nan;101148.59;5041695;28;20372;-80
2022/05/21 04:02:41;;;;;;;2.60;1.70;;;;;;;12.62;nan;101146.91;5038050;28;20041;-79
2022/05/21 04:05:08;;;;;;;2.38;1.40;;;;;;;12.63;nan;101148.59;5043285;28;20037;-80
2022/05/21 04:07:34;;;;;;;2.28;1.60;;;;;;;12.64;nan;101146.75;5042348;28;20032;-79
2022/05/21 04:09:59;;;;;;;2.15;1.70;;;;;;;12.65;nan;101149.25;5043379;28;20498;-79
2022/05/21 04:12:24;;;;;;;1.90;1.50;;;;;;;12.66;nan;101155.41;5050272;28;20044;-80
2022/05/21 04:14:49;;;;;;;3.47;1.77;;;;;;;12.67;nan;101157.06;5049374;28;20049;-80
2022/05/21 04:17:16;;;;;;;3.03;2.33;;;;;;;12.71;nan;101158.44;5024797;28;20041;-80
2022/05/21 04:19:42;;;;;;;3.13;2.47;;;;;;;12.76;nan;101156.16;5047354;28;20064;-80
2022/05/21 04:22:08;;;;;;;3.30;2.20;;;;;;;12.77;nan;101160.47;5034105;28;20123;-79
2022/05/21 04:24:34;;;;;;;3.40;2.00;;;;;;;12.82;nan;101155.53;5034813;28;20072;-79
2022/05/21 04:26:59;;;;;;;2.58;1.70;;;;;;;12.85;nan;101154.44;5041047;28;20068;-79
2022/05/21 04:29:25;;;;;;;2.85;1.85;;;;;;;12.85;nan;101155.28;5028821;28;20048;-79
2022/05/21 04:31:51;;;;;;;2.75;1.60;;;;;;;12.88;nan;101159.44;5041232;28;20042;-79
2022/05/21 04:34:16;;;;;;;2.30;1.70;;;;;;;12.89;nan;101164.56;5031833;28;20033;-80
2022/05/21 04:36:42;;;;;;;2.13;1.63;;;;;;;12.93;nan;101163.28;5030582;28;20115;-79
2022/05/21 04:39:07;;;;;;;2.70;1.60;;;;;;;12.99;nan;101175.16;5037463;28;20111;-79
2022/05/21 04:41:33;;;;;;;1.92;1.30;;;;;;;13.02;nan;101174.00;5040406;28;20030;-79
2022/05/21 04:43:59;;;;;;;1.75;1.30;;;;;;;13.06;nan;101180.66;5037082;28;20047;-79
2022/05/21 04:46:25;;;;;;;2.90;1.75;;;;;;;13.13;nan;101181.72;5043236;28;20029;-79
2022/05/21 04:48:51;;;;;;;2.80;1.70;;;;;;;13.18;nan;101182.13;5027871;28;20037;-80
2022/05/21 04:51:17;;;;;;;2.17;1.60;;;;;;;13.26;nan;101184.00;5043920;28;20488;-80
2022/05/21 04:53:43;;;;;;;3.33;2.17;;;;;;;13.29;nan;101181.91;5050342;28;20071;-80
2022/05/21 04:56:08;;;;;;;3.70;2.15;;;;;;;13.36;nan;101190.09;5040656;28;20045;-80
2022/05/21 04:58:34;;;;;;;3.22;2.10;;;;;;;13.43;nan;101180.53;5027508;28;20064;-80
2022/05/21 05:01:04;;;;;;;3.45;2.50;;;;;;;13.47;nan;101186.38;5048558;28;20044;-80
2022/05/21 05:03:29;;;;;;;3.20;2.33;;;;;;;13.53;nan;101188.41;5040111;28;20044;-80
2022/05/21 05:05:55;;;;;;;3.08;2.15;;;;;;;13.59;nan;101185.13;5047218;28;20033;-80
2022/05/21 05:08:22;;;;;;;2.50;1.70;;;;;;;13.66;nan;101178.19;5042149;28;20045;-80
2022/05/21 05:10:48;;;;;;;3.70;2.35;;;;;;;13.69;nan;101180.53;5045992;28;20033;-80
2022/05/21 05:13:14;;;;;;;3.45;2.10;;;;;;;13.77;nan;101180.56;5036514;28;20060;-80
2022/05/21 05:15:41;;;;;;;4.00;2.20;;;;;;;13.81;nan;101186.44;5039233;28;20134;-80
2022/05/21 05:18:09;;;;;;;2.58;1.50;;;;;;;13.90;nan;101185.50;5035425;28;20033;-80
2022/05/21 05:20:35;;;;;;;3.72;1.92;;;;;;;14.00;nan;101185.38;5037343;28;20056;-80
2022/05/21 05:23:02;;;;;;;2.40;1.80;;;;;;;14.14;nan;101187.44;5039811;28;20041;-80
2022/05/21 05:25:27;;;;;;;2.40;1.73;;;;;;;14.28;nan;101188.69;5041889;28;20286;-80
2022/05/21 05:27:53;;;;;;;3.25;1.80;;;;;;;14.39;nan;101193.69;5032760;28;20120;-80
2022/05/21 05:30:20;;;;;;;3.75;2.20;;;;;;;14.58;nan;101197.13;5034256;28;20464;-80
2022/05/21 05:32:45;;;;;;;2.65;1.90;;;;;;;14.74;nan;101194.50;5042487;28;20043;-80
2022/05/21 05:35:12;;;;;;;2.95;1.83;;;;;;;14.95;nan;101190.56;5045809;28;20041;-80
2022/05/21 05:37:38;;;;;;;3.10;1.80;;;;;;;15.24;nan;101193.59;5043511;28;20050;-80
2022/05/21 05:40:05;;;;;;;4.63;1.92;;;;;;;15.63;nan;101197.41;5039095;28;20045;-80
2022/05/21 05:42:30;;;;;;;3.00;1.80;;;;;;;16.07;nan;101194.34;5047663;28;20394;-80
2022/05/21 05:44:56;;;;;;;1.77;1.30;;;;;;;16.53;nan;101195.31;5034800;28;20038;-80
2022/05/21 05:47:21;;;;;;;1.30;1.08;;;;;;;16.96;nan;101200.28;5045652;28;20030;-80
2022/05/21 05:49:46;;;;;;;1.60;1.15;;;;;;;17.31;nan;101201.53;5044803;28;20179;-81
2022/05/21 05:52:13;;;;;;;2.40;1.20;;;;;;;17.67;nan;101197.41;5023521;28;20057;-80
2022/05/21 05:54:38;;;;;;;1.50;1.10;;;;;;;18.08;nan;101202.34;5042611;28;20049;-80
2022/05/21 05:57:10;;;;;;;3.03;1.02;;;;;;;18.52;nan;101188.06;5044653;28;20043;-81
2022/05/21 05:59:48;;;;;;;1.20;0.80;;;;;;;18.97;nan;101192.31;5043573;28;20025;-81
2022/05/21 06:05:04;;;;;;;2.30;1.10;;;;;;;19.48;nan;101191.34;5035543;28;20087;-81
2022/05/21 06:07:31;;;;;;;3.88;1.10;;;;;;;19.59;nan;101196.16;5035957;28;20027;-81
2022/05/21 06:10:06;;;;;;;1.75;1.10;;;;;;;19.58;nan;101194.50;5045959;28;20036;-81
2022/05/21 06:12:31;;;;;;;1.17;0.70;;;;;;;19.60;nan;101197.00;5035259;28;20556;-80
2022/05/21 06:14:58;;;;;;;1.45;0.82;;;;;;;19.59;nan;101198.00;5040724;28;20044;-80
2022/05/21 06:17:24;;;;;;;2.13;0.75;;;;;;;19.59;nan;101198.84;5035940;28;20407;-80
2022/05/21 06:19:50;;;;;;;1.83;0.60;;;;;;;19.53;nan;101207.69;5041784;28;20037;-80
2022/05/21 06:22:16;;;;;;;1.80;0.85;;;;;;;19.51;nan;101212.41;5042317;28;20040;-80
2022/05/21 06:24:42;;;;;;;2.40;0.80;;;;;;;19.50;nan;101210.75;5047080;28;20487;-81
2022/05/21 06:27:07;;;;;;;1.75;0.88;;;;;;;19.94;nan;101202.41;5032515;28;20121;-81
2022/05/21 06:29:35;;;;;;;4.15;1.23;;;;;;;20.20;nan;101205.47;5045720;28;20037;-80
2022/05/21 06:32:01;;;;;;;1.45;0.80;;;;;;;20.31;nan;101218.34;5041640;28;20114;-81
2022/05/21 06:34:27;;;;;;;1.65;0.80;;;;;;;20.30;nan;101217.50;5032375;28;20034;-81
2022/05/21 06:36:52;;;;;;;2.05;0.90;;;;;;;20.19;nan;101218.06;5033514;28;20044;-81
2022/05/21 06:39:17;;;;;;;2.25;1.00;;;;;;;20.08;nan;101202.50;5033719;28;20045;-80
2022/05/21 06:41:43;;;;;;;2.67;1.20;;;;;;;19.92;nan;101207.16;5036429;28;20044;-80
2022/05/21 06:44:09;;;;;;;3.22;1.17;;;;;;;19.71;nan;101226.00;5038722;28;20526;-80
2022/05/21 06:46:35;;;;;;;1.60;0.80;;;;;;;19.55;nan;101220.91;5041883;28;20047;-81
2022/05/21 06:49:00;;;;;;;3.40;0.80;;;;;;;19.42;nan;101214.38;5033474;28;20061;-80
2022/05/21 06:51:26;;;;;;;0.80;0.60;;;;;;;19.33;nan;101207.53;5035696;28;20486;-80
2022/05/21 06:53:51;;;;;;;2.03;0.80;;;;;;;19.15;nan;101202.59;5028422;28;20542;-79
2022/05/21 06:56:16;;;;;;;2.80;0.88;;;;;;;19.12;nan;101219.06;5030289;28;20813;-80
2022/05/21 06:58:43;;;;;;;2.80;0.90;;;;;;;19.07;nan;101222.31;5032037;28;20514;-79
2022/05/21 07:01:09;;;;;;;2.95;0.93;;;;;;;19.04;nan;101220.03;5029499;28;20078;-79
2022/05/21 07:03:35;;;;;;;3.00;0.90;;;;;;;19.21;nan;101223.28;5036848;28;20112;-80
2022/05/21 07:08:44;;;;;;;5.63;0.90;;;;;;;20.09;nan;101222.94;5027967;28;20084;-81
2022/05/21 07:11:10;;;;;;;2.35;0.80;;;;;;;20.54;nan;101218.84;5033649;28;20057;-81
2022/05/21 07:13:35;;;;;;;2.10;0.80;;;;;;;21.02;nan;101235.97;5016258;28;20042;-81
2022/05/21 07:16:00;;;;;;;3.05;0.80;;;;;;;20.96;nan;101221.50;5033752;28;20044;-81
2022/05/21 07:18:29;;;;;;;2.03;0.90;;;;;;;20.89;nan;101221.47;5032087;28;20033;-80
2022/05/21 07:20:55;;;;;;;1.25;0.70;;;;;;;20.95;nan;101217.97;5028830;28;20112;-81
2022/05/21 07:23:23;;;;;;;2.38;0.70;;;;;;;21.17;nan;101212.44;5021621;28;20084;-81
2022/05/21 07:25:48;;;;;;;2.95;1.17;;;;;;;21.22;nan;101212.66;5035713;28;20038;-81
2022/05/21 07:28:14;;;;;;;1.27;0.70;;;;;;;21.35;nan;101209.13;5031717;28;20041;-81
2022/05/21 07:30:42;;;;;;;1.73;0.70;;;;;;;21.38;nan;101214.09;5040755;28;20375;-81
2022/05/21 07:33:13;;;;;;;2.33;0.90;;;;;;;21.28;nan;101219.06;5033408;28;20510;-81
2022/05/21 07:35:38;;;;;;;;;;;;;;;20.99;nan;101226.47;5032263;28;20128;-80
2022/05/21 07:38:07;;;;;;;;;;;;;;;20.82;nan;101217.13;5024091;28;19952;-81
2022/05/21 07:40:33;;;;;;;;;;;;;;;20.55;nan;101217.00;5032229;28;19917;-80
2022/05/21 07:42:58;;;;;;;;;;;;;;;20.47;nan;101223.34;5027822;28;19925;-80
2022/05/21 07:45:23;;;;;;;;;;;;;;;20.35;nan;101219.56;5032040;28;20006;-80
2022/05/21 07:47:49;;;;;;;;;;;;;;;20.21;nan;101217.84;5033045;28;20024;-80
2022/05/21 07:50:14;;;;;;;;;;;;;;;19.99;nan;101219.81;5030119;28;20394;-80
2022/05/21 07:52:40;;;;;;;;;;;;;;;19.86;nan;101223.22;5021050;28;20314;-80
2022/05/21 07:55:06;;;;;;;;;;;;;;;19.62;nan;101219.94;5018282;28;19927;-80
2022/05/21 07:57:31;;;;;;;;;;;;;;;19.81;nan;101223.81;5039844;28;19940;-80
2022/05/21 07:59:58;;;;;;;;;;;;;;;19.86;nan;101231.28;5039507;28;19917;-80
2022/05/21 08:02:23;;;;;;;;;;;;;;;19.94;nan;101223.91;5016794;28;19924;-79
2022/05/21 08:04:49;;;;;;;;;;;;;;;20.07;nan;101227.69;5030839;28;19917;-79
2022/05/21 08:07:15;;;;;;;;;;;;;;;20.38;nan;101229.94;5030727;28;20278;-79
2022/05/21 08:09:40;;;;;;;;;;;;;;;20.13;nan;101234.97;5034824;28;19924;-79
2022/05/21 08:12:07;;;;;;;;;;;;;;;20.09;nan;101226.50;5028983;28;19924;-80
2022/05/21 08:14:32;;;;;;;;;;;;;;;20.01;nan;101218.56;5035427;28;19920;-79
2022/05/21 08:16:58;;;;;;;;;;;;;;;19.98;nan;101220.84;5030740;28;20302;-79
2022/05/21 08:19:23;;;;;;;;;;;;;;;19.89;nan;101214.78;5032504;28;20277;-80
2022/05/21 08:21:48;;;;;;;;;;;;;;;19.78;nan;101226.06;5032807;28;19921;-80
2022/05/21 08:26:57;;;;;;;;;;;;;;;20.34;nan;101224.13;5029761;28;19923;-79
2022/05/21 08:29:27;;;;;;;;;;;;;;;20.55;nan;101225.06;5029843;28;20316;-81
2022/05/21 08:31:53;;;;;;;;;;;;;;;20.68;nan;101225.13;5032583;28;20406;-80
2022/05/21 08:34:18;;;;;;;;;;;;;;;20.60;nan;101217.25;5032860;28;19956;-80
2022/05/21 08:36:43;;;;;;;;;;;;;;;20.71;nan;101223.88;5020300;28;19924;-80
2022/05/21 08:39:12;;;;;;;;;;;;;;;21.47;nan;101222.81;5033508;28;19921;-81
2022/05/21 08:41:42;;;;;;;;;;;;;;;21.49;nan;101226.13;5039921;28;20283;-81
2022/05/21 08:44:09;;;;;;;;;;;;;;;21.59;nan;101221.16;5037642;28;20052;-80
2022/05/21 08:46:53;;;;;;;;;;;;;;;22.01;nan;101214.47;5034710;28;19917;-81
2022/05/21 08:49:39;;;;;;;;;;;;;;;23.53;nan;101216.66;5034124;28;19921;-79
2022/05/21 08:52:07;;;;;;;;;;;;;;;23.42;nan;101209.25;5021019;28;19916;-80
2022/05/21 08:54:40;;;;;;;;;;;;;;;23.16;nan;101210.28;5034041;28;19931;-79
2022/05/21 08:57:07;;;;;;;;;;;;;;;22.90;nan;101210.19;5031861;28;19940;-79
2022/05/21 08:59:37;;;;;;;;;;;;;;;22.43;nan;101204.25;5017030;28;19924;-79
2022/05/21 09:02:02;;;;;;;;;;;;;;;22.68;nan;101200.78;5040404;28;20381;-80
2022/05/21 09:04:29;;;;;;;;;;;;;;;22.86;nan;101192.00;5020644;28;19920;-79
2022/05/21 09:06:54;;;;;;;;;;;;;;;22.68;nan;101196.22;5039207;28;19913;-80
2022/05/21 09:09:38;;;;;;;;;;;;;;;22.44;nan;101187.00;5035002;28;19948;-79
2022/05/21 09:12:09;;;;;;;;;;;;;;;21.88;nan;101192.13;5033254;28;20362;-79
2022/05/21 09:14:43;;;;;;;;;;;;;;;21.59;nan;101188.88;5033089;28;19921;-79
2022/05/21 09:17:13;;;;;;;;;;;;;;;21.52;nan;101190.72;5036295;28;19963;-78
2022/05/21 09:19:44;;;;;;;;;;;;;;;21.47;nan;101183.28;5037330;28;19924;-80
2022/05/21 09:22:15;;;;;;;;;;;;;;;21.45;nan;101187.22;5029389;28;19917;-80
2022/05/21 09:24:43;;;;;;;;;;;;;;;21.45;nan;101184.53;5025495;28;20371;-79
2022/05/21 09:27:27;;;;;;;;;;;;;;;21.27;nan;101188.63;5031851;28;19940;-79
2022/05/21 09:29:53;;;;;;;;;;;;;;;21.04;nan;101197.09;5037518;28;20384;-79
2022/05/21 09:32:20;;;;;;;;;;;;;;;21.03;nan;101187.38;5035197;28;19921;-79
2022/05/21 09:34:57;;;;;;;;;;;;;;;20.93;nan;101195.84;5037621;28;19921;-79
2022/05/21 09:37:29;;;;;;;;;;;;;;;20.63;nan;101175.72;5033769;28;19979;-79
2022/05/21 09:39:54;;;;;;;;;;;;;;;21.32;nan;101180.78;5018115;28;20169;-80
2022/05/21 09:45:23;;;;;;;;;;;;;;;22.98;nan;101176.81;5028882;28;19989;-79
2022/05/21 09:47:52;;;;;;;;;;;;;;;23.15;nan;101177.09;5039774;28;19921;-79
2022/05/21 09:50:23;;;;;;;;;;;;;;;23.37;nan;101171.31;5022437;28;19923;-80
2022/05/21 09:52:49;;;;;;;;;;;;;;;22.98;nan;101170.56;5019290;28;19920;-79
2022/05/21 09:55:22;;;;;;;;;;;;;;;23.59;nan;101160.94;5036175;28;20070;-78
2022/05/21 09:57:47;;;;;;;;;;;;;;;23.83;nan;101170.06;5027452;28;19924;-79
2022/05/21 10:00:19;;;;;;;;;;;;;;;25.81;nan;101165.56;5024856;28;20266;-79
2022/05/21 10:02:46;;;;;;;;;;;;;;;27.46;nan;101161.28;5032785;28;20007;-79
2022/05/21 10:05:14;;;;;;;;;;;;;;;28.38;nan;101159.81;5043721;28;19917;-79
2022/05/21 10:13:10;;;;;;;;;;;;;;;25.22;nan;101164.72;5030713;28;19924;-79
2022/05/21 10:15:40;;;;;;;;;;;;;;;26.55;nan;101147.81;5047493;28;19922;-79
2022/05/21 10:18:25;;;;;;;;;;;;;;;26.01;nan;101150.81;5021888;28;19917;-79
2022/05/21 10:20:54;;;;;;;;;;;;;;;25.71;nan;101151.75;5038825;28;19924;-79
2022/05/21 10:23:46;;;;;;;;;;;;;;;27.67;nan;101152.41;5030737;28;19924;-79
2022/05/21 10:26:14;;;;;;;;;;;;;;;28.24;nan;101151.22;5030809;28;19944;-79
2022/05/21 10:28:45;;;;;;;;;;;;;;;27.65;nan;101146.38;5014325;28;19924;-79
2022/05/21 10:31:31;;;;;;;;;;;;;;;26.73;nan;101147.63;5030624;28;20000;-79
2022/05/21 10:34:16;;;;;;;;;;;;;;;25.48;nan;101146.34;5025708;28;19924;-79
2022/05/21 10:36:47;;;;;;;;;;;;;;;25.24;nan;101145.53;5020882;28;19943;-79
2022/05/21 10:39:31;;;;;;;;;;;;;;;27.86;nan;101138.53;5033081;28;19917;-79
2022/05/21 10:42:22;;;;;;;;;;;;;;;29.72;nan;101143.53;5030447;28;19917;-79
2022/05/21 10:44:47;;;;;;;;;;;;;;;30.73;nan;101140.59;5032829;28;20422;-79
2022/05/21 10:47:26;;;;;;;;;;;;;;;31.10;nan;101137.59;5033044;28;20141;-79
2022/05/21 10:50:10;;;;;;;;;;;;;;;31.27;nan;101140.03;5031560;28;20389;-79
2022/05/21 10:52:51;;;;;;;;;;;;;;;30.43;nan;101144.91;5028859;28;19917;-79
2022/05/21 10:55:16;;;;;;;;;;;;;;;29.68;nan;101147.91;5032872;28;20345;-79
2022/05/21 10:57:41;;;;;;;;;;;;;;;29.75;nan;101140.31;5031259;28;19917;-79
2022/05/21 11:00:31;;;;;;;;;;;;;;;29.73;nan;101142.47;5032427;28;19913;-79
2022/05/21 11:02:59;;;;;;;;;;;;;;;28.52;nan;101147.47;5018588;28;19916;-79
2022/05/21 11:05:31;;;;;;;;;;;;;;;27.37;nan;101132.94;5031538;28;20048;-79
2022/05/21 11:08:05;;;;;;;;;;;;;;;27.49;nan;101122.78;5030075;28;19971;-80
2022/05/21 11:10:48;;;;;;;;;;;;;;;28.77;nan;101127.00;5030271;28;19913;-80
2022/05/21 11:13:22;;;;;;;;;;;;;;;28.01;nan;101122.41;5043665;23;20048;-71
2022/05/21 11:15:49;;;;;;;;;;;;;;;27.16;nan;101121.72;5016069;28;19956;-71
2022/05/21 11:18:31;;;;;;;;;;;;;;;27.14;nan;101120.34;5039767;28;20527;-70
2022/05/21 11:21:03;;;;;;;;;;;;;;;27.87;nan;101119.25;5019865;28;19963;-71
2022/05/21 11:23:47;;;;;;;;;;;;;;;30.02;nan;101120.22;5020114;28;19927;-71
2022/05/21 11:26:25;;;;;;;;;;;;;;;32.14;nan;101102.34;5005701;28;19917;-71
2022/05/21 11:28:56;;;;;;;;;;;;;;;31.28;nan;101109.72;5018019;28;19924;-71
2022/05/21 11:37:20;;;;;;;;;;;;;;;29.60;nan;101108.31;5023929;28;20397;-71
2022/05/21 11:39:39;;;;;;;;;;;;;;;30.20;nan;101100.66;5016572;28;20035;-71
2022/05/21 11:42:07;;;;;;;;;;;;;;;29.00;nan;101104.88;5015365;28;20011;-72
2022/05/21 11:44:55;;;;;;;;;;;;;;;30.35;nan;101108.06;5015477;28;19992;-71
2022/05/21 11:47:21;;;;;;;;;;;;;;;32.79;nan;101104.09;5023356;28;20004;-71
2022/05/21 11:49:50;;;;;;;;;;;;;;;33.51;nan;101112.44;5022182;28;19997;-71
2022/05/21 11:52:28;;;;;;;;;;;;;;;33.70;nan;101106.22;5015770;28;20012;-71
2022/05/21 11:54:53;;;;;;;;;;;;;;;34.58;nan;101107.44;5022948;28;20000;-72
2022/05/21 11:57:32;;;;;;;;;;;;;;;35.53;nan;101107.97;5030425;28;19941;-72
2022/05/21 11:59:58;;;;;;;;;;;;;;;36.36;nan;101102.34;5030866;28;19913;-72
2022/05/21 12:02:25;;;;;;;;;;;;;;;34.82;nan;101096.34;5011747;28;20008;-71
2022/05/21 12:04:55;;;;;;;;;;;;;;;33.16;nan;101098.03;4992574;28;19983;-71
2022/05/21 12:07:38;;;;;;;;;;;;;;;34.34;nan;101098.50;5003264;28;19918;-71
2022/05/21 12:10:09;;;;;;;;;;;;;;;35.65;nan;101090.16;5012217;28;19917;-72
2022/05/21 12:12:34;;;;;;;;;;;;;;;35.89;nan;101095.44;5008115;28;20422;-72
2022/05/21 12:15:28;;;;;;;;;;;;;;;32.95;nan;101082.84;5015563;28;19921;-72
2022/05/21 12:17:55;;;;;;;;;;;;;;;30.34;nan;101089.22;4996938;28;19999;-72
2022/05/21 12:20:38;;;;;;;;;;;;;;;30.09;nan;101087.25;5016885;28;19920;-71
2022/05/21 12:23:04;;;;;;;;;;;;;;;29.46;nan;101081.78;5017119;28;19914;-71
2022/05/21 12:25:44;;;;;;;;;;;;;;;28.92;nan;101088.22;5020487;28;20405;-71
2022/05/21 12:28:09;;;;;;;;;;;;;;;27.59;nan;101079.47;5017362;28;20297;-71
2022/05/21 12:30:35;;;;;;;;;;;;;;;26.94;nan;101080.94;5011221;28;19918;-71
2022/05/21 12:33:00;;;;;;;;;;;;;;;26.51;nan;101078.84;5011908;28;19979;-71
2022/05/21 12:35:38;;;;;;;;;;;;;;;25.38;nan;101081.97;5011057;28;19929;-71
2022/05/21 12:38:26;;;;;;;;;;;;;;;25.33;nan;101073.75;5012164;28;19948;-72
2022/05/21 12:41:02;;;;;;;;;;;;;;;25.57;nan;101069.13;4994172;28;19928;-71
2022/05/21 12:43:40;;;;;;;;;;;;;;;25.67;nan;101069.34;5011053;28;19924;-71
2022/05/21 12:46:16;;;;;;;;;;;;;;;25.90;nan;101057.63;5017314;28;19917;-71
2022/05/21 12:48:41;;;;;;;;;;;;;;;25.55;nan;101055.84;5016785;28;19943;-71
2022/05/21 12:51:08;;;;;;;;;;;;;;;25.50;nan;101057.59;5011074;28;20020;-71